Time;durP1;ratioP1;P1;durP2;ratioP2;P2;SDS_P1;SDS_P2;PMS_P1;PMS_P2;Temp;Humidity;BMP_temperature;BMP_pressure;BME280_temperature;BME280_humidity;BME280_pressure;Samples;Min_cycle;Max_cycle;Signal;HPM_P1;HPM_P2
2023/10/25 00:01:48;;;;;;;2.50;2.30;;;11.50;99.90;;;;;;5118737;27;20476;-81
2023/10/25 00:04:15;;;;;;;3.80;3.50;;;11.50;99.90;;;;;;5127133;27;20449;-82
2023/10/25 00:06:42;;;;;;;3.00;2.80;;;11.50;99.90;;;;;;5121912;27;20879;-81
2023/10/25 00:09:10;;;;;;;3.37;3.10;;;11.50;99.90;;;;;;5117818;27;20445;-81
2023/10/25 00:11:37;;;;;;;7.30;5.90;;;11.50;99.90;;;;;;5111054;27;20533;-81
2023/10/25 00:14:05;;;;;;;6.53;5.23;;;11.50;99.90;;;;;;5121031;27;20446;-81
2023/10/25 00:16:32;;;;;;;6.80;5.80;;;11.50;99.90;;;;;;5127636;27;20432;-82
2023/10/25 00:18:59;;;;;;;7.00;6.30;;;11.50;99.90;;;;;;5111080;27;20948;-81
2023/10/25 00:21:26;;;;;;;6.63;4.17;;;11.50;99.90;;;;;;5124056;27;20526;-81
2023/10/25 00:23:52;;;;;;;6.60;4.90;;;11.40;99.90;;;;;;5117718;27;20489;-81
2023/10/25 00:26:21;;;;;;;6.57;5.30;;;11.40;99.90;;;;;;5110125;27;20450;-81
2023/10/25 00:28:48;;;;;;;5.63;4.63;;;11.40;99.90;;;;;;5121277;27;20541;-81
2023/10/25 00:31:15;;;;;;;5.40;4.63;;;11.50;99.90;;;;;;5122829;27;20512;-81
2023/10/25 00:33:41;;;;;;;11.30;5.70;;;11.50;99.90;;;;;;5116771;27;20771;-81
2023/10/25 00:36:08;;;;;;;4.93;4.17;;;11.50;99.90;;;;;;5124811;27;20453;-81
2023/10/25 00:38:35;;;;;;;4.83;4.40;;;11.50;99.90;;;;;;5122161;27;20460;-81
2023/10/25 00:41:02;;;;;;;4.30;3.93;;;11.50;99.90;;;;;;5124352;27;20439;-81
2023/10/25 00:43:31;;;;;;;4.70;3.83;;;11.60;99.90;;;;;;5118435;27;20805;-81
2023/10/25 00:46:06;;;;;;;4.80;4.10;;;11.60;99.90;;;;;;5116152;27;20508;-81
2023/10/25 00:48:33;;;;;;;6.73;4.50;;;11.50;99.90;;;;;;5107118;27;20497;-81
2023/10/25 00:51:01;;;;;;;5.73;5.23;;;11.50;99.90;;;;;;5112173;27;20524;-81
2023/10/25 00:53:30;;;;;;;5.13;4.63;;;11.50;99.90;;;;;;5121486;27;20559;-81
2023/10/25 00:55:58;;;;;;;4.73;3.90;;;11.60;99.90;;;;;;5118527;27;20505;-82
2023/10/25 00:58:26;;;;;;;5.03;3.80;;;11.60;99.90;;;;;;5128428;27;20441;-82
2023/10/25 01:00:56;;;;;;;3.83;3.30;;;11.60;99.90;;;;;;5132178;27;20509;-82
2023/10/25 01:03:23;;;;;;;5.37;3.37;;;11.60;99.90;;;;;;5127157;27;20441;-81
2023/10/25 01:05:50;;;;;;;4.93;4.20;;;11.60;99.90;;;;;;5118672;27;20643;-82
2023/10/25 01:08:19;;;;;;;6.03;3.80;;;11.50;99.90;;;;;;5124194;27;20888;-82
2023/10/25 01:10:47;;;;;;;7.33;3.20;;;11.50;99.90;;;;;;5124582;27;20573;-81
2023/10/25 01:13:14;;;;;;;3.47;2.87;;;11.60;99.90;;;;;;5116413;27;20457;-82
2023/10/25 01:15:41;;;;;;;2.93;2.20;;;11.50;99.90;;;;;;5115595;27;20992;-82
2023/10/25 01:18:10;;;;;;;4.47;4.10;;;11.50;99.90;;;;;;5119749;27;20511;-82
2023/10/25 01:20:37;;;;;;;2.20;2.00;;;11.50;99.90;;;;;;5127674;27;20869;-82
2023/10/25 01:23:06;;;;;;;2.00;1.60;;;11.50;99.90;;;;;;5140525;27;20447;-82
2023/10/25 01:25:33;;;;;;;2.07;1.70;;;11.50;99.90;;;;;;5108111;27;20899;-82
2023/10/25 01:27:59;;;;;;;1.63;1.50;;;11.50;99.90;;;;;;5114187;27;20462;-82
2023/10/25 01:30:27;;;;;;;2.07;1.00;;;11.50;99.90;;;;;;5129538;27;20547;-82
2023/10/25 01:32:54;;;;;;;1.50;1.40;;;11.40;99.90;;;;;;5124396;27;20500;-82
2023/10/25 01:35:21;;;;;;;1.63;1.53;;;11.50;99.90;;;;;;5119716;27;20449;-82
2023/10/25 01:37:48;;;;;;;1.57;1.33;;;11.40;99.90;;;;;;5121071;27;21055;-82
2023/10/25 01:40:17;;;;;;;4.73;3.30;;;11.40;99.90;;;;;;5123588;27;21000;-82
2023/10/25 01:42:44;;;;;;;1.80;1.17;;;11.40;99.90;;;;;;5108651;27;20644;-82
2023/10/25 01:45:12;;;;;;;2.03;1.50;;;11.40;99.90;;;;;;5110629;27;20461;-82
2023/10/25 01:47:39;;;;;;;2.53;1.90;;;11.40;99.90;;;;;;5136894;27;20471;-82
2023/10/25 01:50:08;;;;;;;2.87;2.67;;;11.40;99.90;;;;;;5112890;27;20489;-82
2023/10/25 01:52:35;;;;;;;2.50;2.30;;;11.40;99.90;;;;;;5117825;27;20554;-79
2023/10/25 01:55:02;;;;;;;1.40;1.30;;;11.40;99.90;;;;;;5132343;27;20441;-79
2023/10/25 01:57:30;;;;;;;2.00;1.67;;;11.40;99.90;;;;;;5121877;27;20440;-79
2023/10/25 01:59:57;;;;;;;1.53;1.43;;;11.40;99.90;;;;;;5124938;27;20507;-79
2023/10/25 02:02:24;;;;;;;2.33;1.50;;;11.40;99.90;;;;;;5125540;27;20438;-79
2023/10/25 02:04:51;;;;;;;1.70;1.37;;;11.40;99.90;;;;;;5119935;27;20443;-79
2023/10/25 02:07:18;;;;;;;1.67;1.30;;;11.40;99.90;;;;;;5116207;27;20514;-79
2023/10/25 02:09:45;;;;;;;2.93;1.67;;;11.40;99.90;;;;;;5125262;27;20942;-79
2023/10/25 02:12:12;;;;;;;1.10;0.93;;;11.30;99.90;;;;;;5109885;27;20486;-79
2023/10/25 02:14:41;;;;;;;1.23;0.83;;;11.30;99.90;;;;;;5115095;27;20470;-79
2023/10/25 02:17:08;;;;;;;0.80;0.80;;;11.30;99.90;;;;;;5130011;27;20444;-79
2023/10/25 02:19:35;;;;;;;2.00;0.97;;;11.30;99.90;;;;;;5117533;27;20461;-79
2023/10/25 02:22:02;;;;;;;0.87;0.87;;;11.30;99.90;;;;;;5127660;27;20449;-78
2023/10/25 02:24:29;;;;;;;1.00;0.63;;;11.30;99.90;;;;;;5117392;27;20458;-79
2023/10/25 02:26:56;;;;;;;0.60;0.50;;;11.30;99.90;;;;;;5131488;27;20516;-79
2023/10/25 02:29:23;;;;;;;0.60;0.60;;;11.30;99.90;;;;;;5125332;27;20442;-79
2023/10/25 02:31:51;;;;;;;0.60;0.57;;;11.30;99.90;;;;;;5127938;27;20477;-79
2023/10/25 02:34:18;;;;;;;0.87;0.53;;;11.30;99.90;;;;;;5123892;27;20445;-79
2023/10/25 02:36:45;;;;;;;0.60;0.57;;;11.20;99.90;;;;;;5124032;27;20848;-80
2023/10/25 02:39:12;;;;;;;0.60;0.50;;;11.20;99.90;;;;;;5130338;27;20509;-80
2023/10/25 02:41:39;;;;;;;0.63;0.47;;;11.20;99.90;;;;;;5123179;27;20473;-81
2023/10/25 02:44:06;;;;;;;0.50;0.50;;;11.20;99.90;;;;;;5122948;27;21160;-80
2023/10/25 02:46:33;;;;;;;0.60;0.50;;;11.20;99.90;;;;;;5124610;27;20441;-80
2023/10/25 02:49:01;;;;;;;0.50;0.50;;;11.20;99.90;;;;;;5121853;27;20441;-80
2023/10/25 02:51:28;;;;;;;0.67;0.57;;;11.20;99.90;;;;;;5127194;27;20516;-80
2023/10/25 02:53:55;;;;;;;0.80;0.80;;;11.20;99.90;;;;;;5123912;27;20510;-80
2023/10/25 02:56:22;;;;;;;0.60;0.60;;;11.20;99.90;;;;;;5131151;27;21000;-80
2023/10/25 02:58:49;;;;;;;0.70;0.70;;;11.20;99.90;;;;;;5123556;27;20448;-80
2023/10/25 03:01:24;;;;;;;0.73;0.60;;;11.20;99.90;;;;;;5122896;27;20457;-80
2023/10/25 03:03:51;;;;;;;0.50;0.40;;;11.20;99.90;;;;;;5118746;27;20451;-80
2023/10/25 03:06:19;;;;;;;0.50;0.47;;;11.20;99.90;;;;;;5107132;27;20550;-80
2023/10/25 03:08:47;;;;;;;0.60;0.60;;;11.20;99.90;;;;;;5120625;27;20439;-80
2023/10/25 03:11:14;;;;;;;0.50;0.50;;;11.20;99.90;;;;;;5121671;27;21046;-80
2023/10/25 03:13:41;;;;;;;0.50;0.40;;;11.20;99.90;;;;;;5111223;27;20516;-80
2023/10/25 03:16:08;;;;;;;0.80;0.50;;;11.20;99.90;;;;;;5120815;27;20520;-80
2023/10/25 03:18:36;;;;;;;0.70;0.70;;;11.20;99.90;;;;;;5120093;27;21619;-80
2023/10/25 03:21:04;;;;;;;0.50;0.50;;;11.20;99.90;;;;;;5121628;27;20531;-80
2023/10/25 03:23:33;;;;;;;0.60;0.50;;;11.20;99.90;;;;;;5125056;27;20441;-80
2023/10/25 03:26:04;;;;;;;0.93;0.67;;;11.20;99.90;;;;;;5123759;27;21029;-80
2023/10/25 03:28:31;;;;;;;0.60;0.60;;;11.20;99.90;;;;;;5124132;27;20540;-80
2023/10/25 03:30:58;;;;;;;0.93;0.83;;;11.20;99.90;;;;;;5124707;27;20852;-80
2023/10/25 03:33:25;;;;;;;1.33;1.00;;;11.20;99.90;;;;;;5124160;27;20941;-80
2023/10/25 03:35:54;;;;;;;1.20;1.10;;;11.20;99.90;;;;;;5125128;27;20441;-80
2023/10/25 03:38:21;;;;;;;1.50;1.40;;;11.20;99.90;;;;;;5114834;27;20888;-80
2023/10/25 03:40:49;;;;;;;2.17;1.97;;;11.20;99.90;;;;;;5125902;27;20437;-80
2023/10/25 03:43:16;;;;;;;3.50;3.20;;;11.20;99.90;;;;;;5114670;27;20864;-81
2023/10/25 03:45:43;;;;;;;2.80;2.50;;;11.20;99.90;;;;;;5119710;27;20438;-80
2023/10/25 03:48:10;;;;;;;2.40;2.20;;;11.30;99.90;;;;;;5115858;27;20541;-80
2023/10/25 03:50:38;;;;;;;2.60;2.30;;;11.30;99.90;;;;;;5118171;27;20981;-80
2023/10/25 03:53:06;;;;;;;3.43;3.13;;;11.30;99.90;;;;;;5111502;27;20454;-80
2023/10/25 03:55:33;;;;;;;2.27;2.10;;;11.20;99.90;;;;;;5110030;27;20569;-80
2023/10/25 03:58:01;;;;;;;1.73;1.63;;;11.20;99.90;;;;;;5133803;27;20949;-81
2023/10/25 04:00:28;;;;;;;2.27;2.07;;;11.20;99.90;;;;;;5116256;27;20990;-81
2023/10/25 04:02:55;;;;;;;2.50;1.83;;;11.20;99.90;;;;;;5109898;27;21002;-81
2023/10/25 04:05:22;;;;;;;2.23;1.90;;;11.10;99.90;;;;;;5109519;27;20463;-80
2023/10/25 04:07:51;;;;;;;2.03;1.60;;;11.10;99.90;;;;;;5114727;27;20565;-81
2023/10/25 04:10:19;;;;;;;1.60;1.50;;;11.10;99.90;;;;;;5106716;27;20546;-81
2023/10/25 04:12:46;;;;;;;1.83;1.60;;;11.10;99.90;;;;;;5111797;27;20840;-81
2023/10/25 04:15:14;;;;;;;1.17;1.07;;;11.10;99.90;;;;;;5106945;27;20553;-81
2023/10/25 04:17:41;;;;;;;1.87;1.33;;;11.10;99.90;;;;;;5109320;27;20456;-80
2023/10/25 04:20:11;;;;;;;1.50;1.40;;;11.00;99.90;;;;;;5105857;27;20454;-81
2023/10/25 04:22:38;;;;;;;1.93;1.83;;;11.00;99.90;;;;;;5111417;27;20801;-81
2023/10/25 04:25:05;;;;;;;1.57;1.47;;;11.00;99.90;;;;;;5105427;27;20971;-81
2023/10/25 04:27:32;;;;;;;3.07;1.80;;;10.90;99.90;;;;;;5107846;27;20768;-81
2023/10/25 04:29:59;;;;;;;1.73;1.63;;;11.00;99.90;;;;;;5113726;27;20462;-81
2023/10/25 04:32:27;;;;;;;1.83;1.33;;;10.90;99.90;;;;;;5116895;27;20495;-81
2023/10/25 04:34:54;;;;;;;2.73;1.70;;;10.80;99.90;;;;;;5114870;27;20586;-81
2023/10/25 04:37:21;;;;;;;1.67;1.57;;;10.70;99.90;;;;;;5109829;27;20556;-79
2023/10/25 04:39:48;;;;;;;1.50;1.33;;;10.80;99.90;;;;;;5108549;27;20571;-81
2023/10/25 04:42:15;;;;;;;1.20;1.10;;;10.70;99.90;;;;;;5120228;27;20469;-81
2023/10/25 04:44:42;;;;;;;2.20;2.03;;;10.80;99.90;;;;;;5108880;27;20527;-81
2023/10/25 04:47:09;;;;;;;2.67;1.37;;;10.80;99.90;;;;;;5114649;27;20470;-81
2023/10/25 04:49:38;;;;;;;1.50;1.40;;;10.80;99.90;;;;;;5109772;27;20491;-80
2023/10/25 04:52:06;;;;;;;4.43;1.23;;;10.80;99.90;;;;;;5114478;27;20545;-81
2023/10/25 04:54:32;;;;;;;1.40;1.30;;;10.80;99.90;;;;;;5107619;27;20468;-81
2023/10/25 04:56:59;;;;;;;0.80;0.77;;;10.90;99.90;;;;;;5103271;27;20471;-81
2023/10/25 04:59:28;;;;;;;2.80;1.40;;;11.00;99.90;;;;;;5113138;27;20452;-81
2023/10/25 05:01:55;;;;;;;1.70;1.60;;;11.00;99.90;;;;;;5109642;27;20463;-81
2023/10/25 05:04:22;;;;;;;1.97;1.77;;;11.00;99.90;;;;;;5105187;27;20467;-81
2023/10/25 05:06:51;;;;;;;1.30;1.20;;;11.10;99.90;;;;;;5112731;27;20470;-81
2023/10/25 05:09:18;;;;;;;2.80;1.83;;;11.00;99.90;;;;;;5127495;27;20463;-81
2023/10/25 05:11:55;;;;;;;1.40;1.17;;;11.00;99.90;;;;;;5111290;27;20586;-81
2023/10/25 05:14:23;;;;;;;1.10;1.00;;;11.00;99.90;;;;;;5103190;27;21142;-82
2023/10/25 05:16:50;;;;;;;0.90;0.90;;;11.00;99.90;;;;;;5110901;27;20840;-82
2023/10/25 05:19:18;;;;;;;1.30;0.80;;;11.10;99.90;;;;;;5116732;27;20993;-82
2023/10/25 05:21:49;;;;;;;1.77;1.43;;;11.10;99.90;;;;;;5109273;27;20451;-82
2023/10/25 05:24:18;;;;;;;1.20;1.10;;;11.10;99.90;;;;;;5105153;27;20459;-82
2023/10/25 05:26:46;;;;;;;1.00;1.00;;;11.10;99.90;;;;;;5104091;27;20479;-82
2023/10/25 05:29:13;;;;;;;1.63;1.10;;;11.10;99.90;;;;;;5109639;27;20481;-82
2023/10/25 05:31:43;;;;;;;1.13;1.03;;;11.10;99.90;;;;;;5112958;27;20474;-81
2023/10/25 05:34:11;;;;;;;0.90;0.80;;;11.20;99.90;;;;;;5122262;27;20470;-81
2023/10/25 05:36:39;;;;;;;1.13;1.00;;;11.20;99.90;;;;;;5110098;27;20447;-82
2023/10/25 05:39:07;;;;;;;0.70;0.70;;;11.20;99.90;;;;;;5114971;27;20448;-81
2023/10/25 05:41:40;;;;;;;1.73;0.93;;;11.20;99.90;;;;;;5109841;27;20478;-81
2023/10/25 05:44:10;;;;;;;1.03;0.80;;;11.20;99.90;;;;;;5110984;27;20443;-80
2023/10/25 05:46:37;;;;;;;1.23;0.93;;;11.20;99.90;;;;;;5108295;27;20459;-81
2023/10/25 05:49:05;;;;;;;3.77;1.00;;;11.20;99.90;;;;;;5113955;27;20447;-81
2023/10/25 05:51:32;;;;;;;0.80;0.70;;;11.20;99.90;;;;;;5110839;27;20473;-81
2023/10/25 05:54:00;;;;;;;0.87;0.87;;;11.20;99.90;;;;;;5121566;27;20461;-81
2023/10/25 05:56:28;;;;;;;1.20;1.07;;;11.20;99.90;;;;;;5106823;27;20445;-81
2023/10/25 05:58:57;;;;;;;0.60;0.57;;;11.20;99.90;;;;;;5107412;27;20466;-81
2023/10/25 06:01:35;;;;;;;0.90;0.80;;;11.30;99.90;;;;;;5110952;27;20439;-81
2023/10/25 06:04:06;;;;;;;1.23;1.00;;;11.30;99.90;;;;;;5107299;27;20477;-81
2023/10/25 06:06:35;;;;;;;2.17;1.43;;;11.30;99.90;;;;;;5108164;27;20469;-81
2023/10/25 06:09:02;;;;;;;0.80;0.80;;;11.30;99.90;;;;;;5120478;27;20451;-81
2023/10/25 06:11:30;;;;;;;13.73;1.90;;;11.30;99.90;;;;;;5111252;27;20641;-81
2023/10/25 06:13:59;;;;;;;1.00;0.87;;;11.40;99.90;;;;;;5109352;27;20451;-81
2023/10/25 06:16:26;;;;;;;1.10;0.90;;;11.40;99.90;;;;;;5115824;27;20467;-81
2023/10/25 06:18:53;;;;;;;1.63;1.00;;;11.40;99.90;;;;;;5117419;27;20502;-81
2023/10/25 06:21:20;;;;;;;1.10;1.10;;;11.50;99.90;;;;;;5111238;27;20463;-80
2023/10/25 06:23:47;;;;;;;2.10;0.80;;;11.50;99.90;;;;;;5105907;27;20502;-81
2023/10/25 06:26:14;;;;;;;1.83;1.70;;;11.50;99.90;;;;;;5110284;27;20463;-81
2023/10/25 06:28:41;;;;;;;1.23;1.00;;;11.60;99.90;;;;;;5110446;27;20528;-81
2023/10/25 06:31:11;;;;;;;1.00;0.97;;;11.60;99.90;;;;;;5116027;27;20880;-81
2023/10/25 06:33:37;;;;;;;1.00;0.90;;;11.70;99.90;;;;;;5104063;27;20468;-81
2023/10/25 06:36:07;;;;;;;1.07;0.97;;;11.70;99.90;;;;;;5114022;27;20509;-81
2023/10/25 06:38:34;;;;;;;1.30;0.80;;;11.80;99.90;;;;;;5107846;27;20781;-84
2023/10/25 06:41:02;;;;;;;1.07;0.80;;;11.80;99.90;;;;;;5112679;27;20851;-81
2023/10/25 06:43:30;;;;;;;3.23;1.37;;;11.80;99.90;;;;;;5124077;27;20542;-81
2023/10/25 06:45:59;;;;;;;3.10;1.33;;;11.80;99.90;;;;;;5114522;27;20473;-81
2023/10/25 06:48:28;;;;;;;1.33;1.07;;;11.70;99.90;;;;;;5116120;27;20448;-81
2023/10/25 06:50:58;;;;;;;1.93;1.10;;;11.80;99.90;;;;;;5107849;27;20475;-82
2023/10/25 06:53:26;;;;;;;1.77;1.23;;;11.90;99.90;;;;;;5112526;27;20454;-82
2023/10/25 06:55:54;;;;;;;1.97;1.87;;;11.90;99.90;;;;;;5127674;27;20948;-82
2023/10/25 06:58:21;;;;;;;1.77;1.10;;;11.80;99.90;;;;;;5122720;27;20463;-82
2023/10/25 07:00:50;;;;;;;1.00;1.00;;;11.80;99.90;;;;;;5107991;27;20528;-82
2023/10/25 07:03:22;;;;;;;1.43;1.33;;;11.80;99.90;;;;;;5105868;27;20440;-82
2023/10/25 07:05:52;;;;;;;2.23;1.07;;;11.90;99.90;;;;;;5111552;27;20439;-82
2023/10/25 07:08:21;;;;;;;1.10;1.00;;;11.80;99.90;;;;;;5111365;27;20466;-82
2023/10/25 07:10:48;;;;;;;1.50;1.27;;;11.90;99.90;;;;;;5108661;27;20488;-82
2023/10/25 07:13:15;;;;;;;1.60;1.50;;;12.00;99.90;;;;;;5105801;27;20484;-82
2023/10/25 07:15:42;;;;;;;2.53;2.37;;;12.10;99.90;;;;;;5114857;27;20543;-82
2023/10/25 07:18:09;;;;;;;1.87;1.77;;;12.20;99.90;;;;;;5116923;27;20940;-82
2023/10/25 07:20:36;;;;;;;1.70;1.60;;;12.30;99.90;;;;;;5114583;27;20963;-82
2023/10/25 07:23:04;;;;;;;1.87;1.73;;;12.30;99.90;;;;;;5109990;27;20560;-82
2023/10/25 07:25:32;;;;;;;1.20;1.10;;;12.30;99.90;;;;;;5118065;27;20443;-82
2023/10/25 07:27:59;;;;;;;1.33;1.20;;;12.30;99.90;;;;;;5129727;27;20538;-82
2023/10/25 07:30:26;;;;;;;1.63;1.50;;;12.30;99.90;;;;;;5106330;27;20447;-82
2023/10/25 07:32:53;;;;;;;1.87;1.77;;;12.30;99.90;;;;;;5111238;27;20497;-82
2023/10/25 07:35:21;;;;;;;2.20;2.10;;;12.30;99.90;;;;;;5108209;27;20974;-82
2023/10/25 07:37:48;;;;;;;4.60;1.60;;;12.30;99.90;;;;;;5105437;27;21074;-82
2023/10/25 07:40:16;;;;;;;2.70;2.40;;;12.30;99.90;;;;;;5109575;27;20449;-82
2023/10/25 07:42:43;;;;;;;3.40;2.60;;;12.30;99.90;;;;;;5117303;27;20434;-82
2023/10/25 07:45:11;;;;;;;2.30;1.60;;;12.40;99.90;;;;;;5117081;27;20441;-82
2023/10/25 07:47:37;;;;;;;2.43;1.90;;;12.40;99.90;;;;;;5117183;27;20914;-82
2023/10/25 07:50:05;;;;;;;3.83;3.43;;;12.40;99.90;;;;;;5114471;27;20456;-82
2023/10/25 07:52:35;;;;;;;9.27;7.90;;;12.50;99.90;;;;;;5117516;27;20568;-82
2023/10/25 07:55:03;;;;;;;3.93;3.63;;;12.50;99.90;;;;;;5106026;27;21149;-83
2023/10/25 07:57:31;;;;;;;4.23;3.07;;;12.50;99.90;;;;;;5112011;27;20860;-82
2023/10/25 07:59:59;;;;;;;2.27;1.90;;;12.60;99.90;;;;;;5112922;27;20998;-82
2023/10/25 08:02:26;;;;;;;2.80;2.37;;;12.70;99.90;;;;;;5105636;27;20546;-82
2023/10/25 08:04:53;;;;;;;4.20;3.90;;;12.90;99.90;;;;;;5103271;27;20496;-82
2023/10/25 08:07:20;;;;;;;2.77;2.57;;;13.00;99.90;;;;;;5109346;27;20587;-82
2023/10/25 08:09:47;;;;;;;3.73;3.43;;;13.10;99.90;;;;;;5115662;27;20448;-82
2023/10/25 08:12:14;;;;;;;3.13;1.93;;;13.20;99.90;;;;;;5108810;27;21084;-82
2023/10/25 08:14:42;;;;;;;2.40;2.20;;;13.20;99.90;;;;;;5112659;27;20650;-82
2023/10/25 08:17:09;;;;;;;2.33;1.77;;;13.30;99.90;;;;;;5107912;27;20461;-82
2023/10/25 08:19:36;;;;;;;6.60;6.07;;;13.20;99.90;;;;;;5107555;27;20530;-82
2023/10/25 08:22:05;;;;;;;5.67;5.17;;;13.20;99.90;;;;;;5115030;27;20466;-82
2023/10/25 08:24:33;;;;;;;7.67;7.03;;;13.30;99.90;;;;;;5103605;27;20455;-82
2023/10/25 08:27:00;;;;;;;2.70;2.50;;;13.30;99.90;;;;;;5110842;27;20536;-82
2023/10/25 08:29:27;;;;;;;4.37;3.53;;;13.20;99.90;;;;;;5119958;27;20448;-82
2023/10/25 08:31:55;;;;;;;2.47;2.23;;;13.10;99.90;;;;;;5108094;27;20487;-82
2023/10/25 08:34:22;;;;;;;4.33;3.10;;;13.20;99.90;;;;;;5113637;27;20475;-82
2023/10/25 08:36:49;;;;;;;3.90;3.10;;;13.30;99.90;;;;;;5106973;27;20518;-82
2023/10/25 08:39:16;;;;;;;3.73;2.67;;;13.40;99.90;;;;;;5128990;27;20548;-82
2023/10/25 08:41:47;;;;;;;4.27;3.20;;;13.40;99.90;;;;;;5114289;27;20471;-82
2023/10/25 08:44:15;;;;;;;3.70;3.33;;;13.50;99.90;;;;;;5116585;27;20553;-82
2023/10/25 08:46:44;;;;;;;3.60;3.30;;;13.40;99.90;;;;;;5118976;27;20533;-82
2023/10/25 08:49:12;;;;;;;3.80;3.40;;;13.30;99.90;;;;;;5128555;27;20444;-82
2023/10/25 08:51:42;;;;;;;6.57;5.97;;;13.20;99.90;;;;;;5116398;27;20461;-82
2023/10/25 08:54:09;;;;;;;10.80;7.80;;;13.30;99.90;;;;;;5118792;27;20508;-82
2023/10/25 08:56:36;;;;;;;5.63;4.73;;;13.40;99.90;;;;;;5118579;27;21228;-82
2023/10/25 08:59:05;;;;;;;7.73;6.17;;;13.40;99.90;;;;;;5126469;27;20602;-83
2023/10/25 09:01:32;;;;;;;4.30;3.90;;;13.60;99.90;;;;;;5111280;27;20461;-83
2023/10/25 09:04:07;;;;;;;4.17;3.80;;;13.60;99.90;;;;;;5108062;27;20703;-83
2023/10/25 09:06:35;;;;;;;8.80;7.50;;;13.60;99.90;;;;;;5117108;27;20537;-83
2023/10/25 09:09:05;;;;;;;3.23;2.93;;;13.80;99.90;;;;;;5121029;27;20438;-83
2023/10/25 09:11:43;;;;;;;3.47;2.73;;;14.00;99.90;;;;;;5110847;27;20478;-83
2023/10/25 09:14:11;;;;;;;2.57;2.00;;;14.10;99.90;;;;;;5109910;27;20569;-83
2023/10/25 09:16:42;;;;;;;3.13;2.33;;;14.20;99.90;;;;;;5122121;27;20492;-83
2023/10/25 09:19:08;;;;;;;3.10;2.50;;;14.00;99.90;;;;;;5118445;27;20973;-83
2023/10/25 09:21:37;;;;;;;1.70;1.60;;;14.00;99.90;;;;;;5114042;27;20459;-83
2023/10/25 09:24:07;;;;;;;3.93;3.40;;;14.20;99.90;;;;;;5116634;27;20937;-83
2023/10/25 09:26:36;;;;;;;2.03;1.53;;;14.40;99.90;;;;;;5117767;27;20461;-83
2023/10/25 09:29:03;;;;;;;3.83;3.43;;;14.70;99.90;;;;;;5114313;27;20543;-83
2023/10/25 09:31:31;;;;;;;3.73;3.37;;;14.90;99.90;;;;;;5115014;27;20448;-83
2023/10/25 09:34:00;;;;;;;2.27;2.07;;;14.80;99.90;;;;;;5112484;27;20932;-83
2023/10/25 09:36:28;;;;;;;4.80;3.50;;;14.90;99.90;;;;;;5114552;27;20471;-81
2023/10/25 09:38:57;;;;;;;3.90;3.50;;;14.80;99.90;;;;;;5123742;27;20472;-81
2023/10/25 09:41:27;;;;;;;2.60;2.40;;;15.00;99.90;;;;;;5111688;27;20459;-81
2023/10/25 09:43:58;;;;;;;2.00;1.90;;;15.40;99.90;;;;;;5114887;27;21149;-81
2023/10/25 09:46:30;;;;;;;2.20;1.90;;;15.70;99.90;;;;;;5127371;27;20456;-81
2023/10/25 09:49:03;;;;;;;1.70;1.60;;;16.10;99.90;;;;;;5117639;27;20469;-81
2023/10/25 09:51:47;;;;;;;1.90;1.70;;;16.00;99.90;;;;;;5114165;27;20477;-81
2023/10/25 09:54:23;;;;;;;1.87;1.27;;;16.20;99.90;;;;;;5108569;27;20481;-81
2023/10/25 09:56:54;;;;;;;3.30;2.87;;;16.20;99.90;;;;;;5109507;27;20529;-81
2023/10/25 09:59:22;;;;;;;1.30;1.20;;;15.60;99.90;;;;;;5130270;27;20441;-81
2023/10/25 10:01:49;;;;;;;5.87;4.67;;;15.70;99.90;;;;;;5106547;27;20503;-81
2023/10/25 10:04:26;;;;;;;2.20;2.00;;;15.60;99.90;;;;;;5108669;27;20461;-82
2023/10/25 10:07:03;;;;;;;1.67;1.23;;;15.50;99.90;;;;;;5113002;27;20552;-81
2023/10/25 10:09:37;;;;;;;2.60;1.90;;;15.70;99.90;;;;;;5112175;27;21126;-81
2023/10/25 10:12:06;;;;;;;1.67;1.10;;;15.50;99.90;;;;;;5108822;27;20798;-81
2023/10/25 10:14:35;;;;;;;1.70;1.50;;;15.50;99.90;;;;;;5113289;27;20487;-82
2023/10/25 10:17:08;;;;;;;1.83;1.60;;;15.60;99.90;;;;;;5118976;27;20531;-82
2023/10/25 10:19:39;;;;;;;1.53;1.33;;;15.80;99.90;;;;;;5118870;27;21290;-82
2023/10/25 10:22:08;;;;;;;1.23;1.10;;;16.00;99.90;;;;;;5121610;27;20514;-82
2023/10/25 10:24:48;;;;;;;1.97;1.77;;;15.90;99.90;;;;;;5127363;27;20450;-83
2023/10/25 10:27:17;;;;;;;1.40;1.00;;;15.90;99.90;;;;;;5122848;27;20497;-83
2023/10/25 10:29:45;;;;;;;1.87;1.77;;;15.90;99.90;;;;;;5112352;27;20454;-82
2023/10/25 10:32:13;;;;;;;1.80;1.40;;;16.00;99.90;;;;;;5106695;27;20454;-82
2023/10/25 10:34:43;;;;;;;1.50;1.40;;;16.20;99.90;;;;;;5109340;27;20465;-82
2023/10/25 10:37:11;;;;;;;1.57;1.47;;;16.00;99.90;;;;;;5118044;27;20507;-82
2023/10/25 10:40:13;;;;;;;1.10;1.00;;;16.00;99.90;;;;;;5113542;27;20465;-82
2023/10/25 10:42:40;;;;;;;3.90;1.63;;;16.00;99.90;;;;;;5108357;27;20901;-82
2023/10/25 10:45:11;;;;;;;1.20;0.80;;;16.00;99.90;;;;;;5122039;27;20762;-82
2023/10/25 10:47:42;;;;;;;1.00;0.90;;;16.00;99.90;;;;;;5107752;27;20458;-82
2023/10/25 10:50:12;;;;;;;1.03;0.93;;;16.20;99.90;;;;;;5106668;27;20503;-82
2023/10/25 10:52:39;;;;;;;1.13;1.03;;;16.10;99.90;;;;;;5104905;27;21017;-82
2023/10/25 10:55:09;;;;;;;3.33;0.93;;;15.90;99.90;;;;;;5128222;27;20704;-83
2023/10/25 10:57:37;;;;;;;0.70;0.63;;;15.90;99.90;;;;;;5133162;27;20523;-82
2023/10/25 11:00:07;;;;;;;3.53;0.60;;;15.90;99.90;;;;;;5109593;27;20550;-82
2023/10/25 11:02:36;;;;;;;0.90;0.60;;;15.70;99.90;;;;;;5117673;27;20453;-82
2023/10/25 11:05:03;;;;;;;0.70;0.60;;;15.50;99.90;;;;;;5133170;27;20437;-82
2023/10/25 11:07:30;;;;;;;1.00;0.63;;;15.50;99.90;;;;;;5124479;27;20529;-82
2023/10/25 11:09:57;;;;;;;0.60;0.50;;;15.50;99.90;;;;;;5111410;27;21016;-82
2023/10/25 11:12:26;;;;;;;0.80;0.70;;;15.50;99.90;;;;;;5106892;27;20556;-82
2023/10/25 11:14:53;;;;;;;1.13;0.97;;;15.60;99.90;;;;;;5130052;27;20449;-82
2023/10/25 11:17:21;;;;;;;0.80;0.70;;;15.40;99.90;;;;;;5122957;27;20532;-82
2023/10/25 11:19:49;;;;;;;2.87;1.00;;;15.10;99.90;;;;;;5115862;27;20446;-81
2023/10/25 11:22:16;;;;;;;0.60;0.50;;;14.90;99.90;;;;;;5111874;27;20527;-81
2023/10/25 11:24:43;;;;;;;0.90;0.73;;;14.90;99.90;;;;;;5120399;27;20462;-81
2023/10/25 11:27:10;;;;;;;0.83;0.80;;;14.90;99.90;;;;;;5107407;27;20449;-82
2023/10/25 11:29:39;;;;;;;1.93;1.23;;;14.90;99.90;;;;;;5109050;27;20568;-82
2023/10/25 11:32:11;;;;;;;0.93;0.70;;;14.90;99.90;;;;;;5106698;27;20541;-82
2023/10/25 11:34:42;;;;;;;1.53;1.10;;;14.90;99.90;;;;;;5106753;27;20481;-82
2023/10/25 11:37:09;;;;;;;1.00;0.90;;;14.90;99.90;;;;;;5108223;27;20552;-82
2023/10/25 11:39:58;;;;;;;3.80;1.70;;;15.10;99.90;;;;;;5130934;27;20505;-82
2023/10/25 11:42:27;;;;;;;1.80;0.93;;;15.50;99.90;;;;;;5121617;27;20510;-81
2023/10/25 11:44:56;;;;;;;1.00;0.80;;;15.70;99.90;;;;;;5114240;27;20446;-82
2023/10/25 11:47:23;;;;;;;1.27;1.00;;;16.10;99.90;;;;;;5109628;27;20485;-82
2023/10/25 11:49:53;;;;;;;1.70;1.60;;;16.10;99.90;;;;;;5105331;27;20442;-82
2023/10/25 11:52:23;;;;;;;2.27;1.80;;;16.10;99.90;;;;;;5112913;27;20577;-82
2023/10/25 11:54:55;;;;;;;1.10;1.00;;;16.20;99.90;;;;;;5119673;27;20481;-82
2023/10/25 11:57:23;;;;;;;1.20;1.10;;;15.80;99.90;;;;;;5110858;27;20469;-83
2023/10/25 11:59:50;;;;;;;1.33;1.03;;;15.30;99.90;;;;;;5109010;27;20561;-82
2023/10/25 12:02:19;;;;;;;3.30;1.00;;;15.10;99.90;;;;;;5106917;27;20457;-83
2023/10/25 12:04:46;;;;;;;2.10;1.00;;;15.00;99.90;;;;;;5126035;27;21041;-82
2023/10/25 12:07:13;;;;;;;2.70;0.87;;;15.20;99.90;;;;;;5113395;27;20468;-82
2023/10/25 12:09:42;;;;;;;1.03;1.03;;;15.20;99.90;;;;;;5119830;27;20851;-82
2023/10/25 12:12:10;;;;;;;3.27;0.80;;;15.50;99.90;;;;;;5112872;27;20481;-82
2023/10/25 12:14:37;;;;;;;0.80;0.80;;;15.70;99.90;;;;;;5123042;27;20512;-82
2023/10/25 12:17:05;;;;;;;1.07;0.70;;;15.90;99.90;;;;;;5115234;27;20454;-82
2023/10/25 12:19:35;;;;;;;0.80;0.80;;;15.90;99.90;;;;;;5116809;27;20545;-82
2023/10/25 12:22:05;;;;;;;1.00;1.00;;;15.90;99.90;;;;;;5117865;27;20527;-82
2023/10/25 12:24:32;;;;;;;1.17;1.07;;;16.00;99.90;;;;;;5109291;27;20511;-81
2023/10/25 12:27:00;;;;;;;2.57;1.20;;;16.10;99.90;;;;;;5103325;27;20497;-81
2023/10/25 12:29:27;;;;;;;1.00;0.90;;;16.20;99.90;;;;;;5118248;27;20465;-82
2023/10/25 12:31:54;;;;;;;2.50;0.70;;;16.20;99.90;;;;;;5106544;27;20537;-81
2023/10/25 12:34:21;;;;;;;1.40;1.20;;;16.00;99.90;;;;;;5116240;27;20491;-82
2023/10/25 12:36:49;;;;;;;1.37;0.80;;;16.10;99.90;;;;;;5106955;27;20462;-81
2023/10/25 12:39:17;;;;;;;2.60;1.10;;;16.20;99.90;;;;;;5108263;27;20558;-81
2023/10/25 12:41:44;;;;;;;2.37;0.83;;;16.20;99.90;;;;;;5115602;27;20537;-82
2023/10/25 12:44:12;;;;;;;1.20;1.10;;;16.20;99.90;;;;;;5126162;27;20496;-82
2023/10/25 12:46:39;;;;;;;0.90;0.80;;;16.40;99.90;;;;;;5113348;27;20965;-82
2023/10/25 12:49:07;;;;;;;1.70;1.00;;;16.40;99.90;;;;;;5128667;27;20452;-82
2023/10/25 12:51:34;;;;;;;0.80;0.70;;;16.30;99.50;;;;;;5116226;27;20551;-82